createdAt,value
2023-05-02T00:00:22.241Z,50.45
2023-05-02T00:03:25.633Z,50.15
2023-05-02T00:06:28.081Z,50.65
2023-05-02T00:09:30.649Z,50.79
2023-05-02T00:12:32.973Z,49.73
2023-05-02T00:15:35.406Z,49.39
2023-05-02T00:18:37.586Z,49.72
2023-05-02T00:21:40.017Z,49.30
2023-05-02T00:24:42.171Z,49.49
2023-05-02T00:27:46.745Z,49.65
2023-05-02T00:30:49.181Z,48.46
2023-05-02T00:33:51.597Z,47.74
2023-05-02T00:36:53.921Z,48.23
2023-05-02T00:39:56.426Z,47.30
2023-05-02T00:42:58.626Z,47.08
2023-05-02T00:46:01.389Z,46.35
2023-05-02T00:49:03.627Z,46.76
2023-05-02T00:52:07.715Z,47.89
2023-05-02T00:55:09.879Z,47.86
2023-05-02T00:58:16.498Z,48.13
2023-05-02T01:01:43.113Z,47.52
2023-05-02T01:05:13.854Z,47.61
2023-05-02T01:08:39.052Z,46.29
2023-05-02T01:11:57.023Z,47.97
2023-05-02T01:15:02.215Z,48.62
2023-05-02T01:18:06.351Z,47.82
2023-05-02T01:21:10.424Z,48.41
2023-05-02T01:24:22.148Z,48.45
2023-05-02T01:27:46.059Z,48.10
2023-05-02T01:30:50.903Z,48.57
2023-05-02T01:33:55.868Z,48.55
2023-05-02T01:37:01.073Z,48.39
2023-05-02T01:40:05.275Z,48.44
2023-05-02T01:43:09.251Z,48.21
2023-05-02T01:46:13.639Z,48.71
2023-05-02T01:49:16.349Z,49.13
2023-05-02T01:52:21.782Z,49.95
2023-05-02T01:55:25.487Z,50.14
2023-05-02T01:58:30.680Z,50.60
2023-05-02T02:01:35.448Z,50.49
2023-05-02T02:04:39.645Z,50.70
2023-05-02T02:07:43.754Z,50.53
2023-05-02T02:10:53.834Z,51.59
2023-05-02T02:14:12.443Z,51.50
2023-05-02T02:17:29.969Z,50.55
2023-05-02T02:20:33.327Z,51.53
2023-05-02T02:23:37.997Z,52.03
2023-05-02T02:26:42.731Z,52.18
2023-05-02T02:29:45.564Z,52.76
2023-05-02T02:32:48.145Z,52.13
2023-05-02T02:35:57.163Z,51.73
2023-05-02T02:39:28.436Z,52.98
2023-05-02T02:43:08.031Z,53.03
2023-05-02T02:46:17.630Z,54.00
2023-05-02T02:49:44.472Z,53.05
2023-05-02T02:53:00.914Z,52.43
2023-05-02T02:56:06.814Z,51.98
2023-05-02T02:59:27.873Z,52.59
2023-05-02T03:02:32.764Z,52.27
2023-05-02T03:05:35.982Z,52.08
2023-05-02T03:08:42.963Z,52.05
2023-05-02T03:11:47.173Z,52.57
2023-05-02T03:14:50.182Z,52.37
2023-05-02T03:17:52.846Z,52.53
2023-05-02T03:20:55.030Z,52.80
2023-05-02T03:24:02.096Z,53.58
2023-05-02T03:27:04.885Z,53.86
2023-05-02T03:30:08.584Z,53.89
2023-05-02T03:33:11.141Z,54.29
2023-05-02T03:36:14.601Z,54.54
2023-05-02T03:39:16.954Z,54.66
2023-05-02T03:42:19.932Z,54.15
2023-05-02T03:45:22.518Z,54.26
2023-05-02T03:48:25.417Z,54.01
2023-05-02T03:51:27.597Z,54.09
2023-05-02T03:54:32.806Z,55.04
2023-05-02T03:57:35.985Z,55.02
2023-05-02T04:00:38.837Z,54.26
2023-05-02T04:03:42.836Z,54.72
2023-05-02T04:06:45.827Z,54.88
2023-05-02T04:09:48.621Z,54.40
2023-05-02T04:12:51.129Z,54.51
2023-05-02T04:15:54.020Z,54.28
2023-05-02T04:18:56.692Z,53.76
2023-05-02T04:22:06.261Z,53.77
2023-05-02T04:25:09.966Z,53.91
2023-05-02T04:28:12.670Z,53.65
2023-05-02T04:31:15.266Z,54.50
2023-05-02T04:34:18.977Z,53.33
2023-05-02T04:37:21.508Z,53.37
2023-05-02T04:40:24.530Z,52.09
2023-05-02T04:43:27.938Z,51.69
2023-05-02T04:46:31.055Z,51.46
2023-05-02T04:49:33.307Z,51.35
2023-05-02T04:52:35.886Z,51.25
2023-05-02T04:55:38.159Z,51.15
2023-05-02T04:58:41.022Z,49.87
2023-05-02T05:01:45.822Z,48.94
2023-05-02T05:04:49.166Z,48.88
2023-05-02T05:07:52.592Z,49.14
2023-05-02T05:10:55.611Z,48.37
2023-05-02T05:13:58.460Z,47.99
2023-05-02T05:17:01.739Z,48.46
2023-05-02T05:20:04.923Z,48.29
2023-05-02T05:23:08.027Z,48.12
2023-05-02T05:26:15.612Z,49.15
2023-05-02T05:29:19.133Z,48.32
2023-05-02T05:32:22.212Z,47.56
2023-05-02T05:35:25.871Z,46.89
2023-05-02T05:38:28.634Z,46.82
2023-05-02T05:41:32.277Z,44.58
2023-05-02T05:44:36.439Z,43.85
2023-05-02T05:47:39.211Z,41.35
2023-05-02T05:50:42.471Z,38.90
2023-05-02T05:53:48.152Z,37.21
2023-05-02T05:56:50.521Z,35.14
2023-05-02T05:59:54.207Z,32.41
2023-05-02T06:02:56.930Z,30.99
2023-05-02T06:05:59.932Z,31.97
2023-05-02T06:09:02.477Z,31.81
2023-05-02T06:12:05.184Z,29.87
2023-05-02T06:15:08.151Z,28.98
2023-05-02T06:18:11.897Z,27.91
2023-05-02T06:21:18.362Z,28.39
2023-05-02T06:24:21.669Z,26.80
2023-05-02T06:27:23.889Z,29.03
2023-05-02T06:30:27.100Z,28.11
2023-05-02T06:33:29.977Z,28.03
2023-05-02T06:36:33.404Z,30.56
2023-05-02T06:39:37.749Z,30.21
2023-05-02T06:46:13.781Z,28.50
2023-05-02T06:49:16.921Z,26.83
2023-05-02T06:52:20.248Z,27.83
2023-05-02T06:55:26.233Z,28.11
2023-05-02T06:58:30.328Z,27.54
2023-05-02T07:01:33.091Z,27.82
2023-05-02T07:04:35.701Z,27.11
2023-05-02T07:07:38.967Z,26.40
2023-05-02T07:10:43.288Z,25.84
2023-05-02T07:13:46.535Z,26.76
2023-05-02T07:16:56.699Z,25.24
2023-05-02T07:20:05.656Z,25.99
2023-05-02T07:23:09.351Z,28.10
2023-05-02T07:26:13.800Z,30.53
2023-05-02T07:29:16.196Z,31.27
2023-05-02T07:32:21.778Z,31.70
2023-05-02T07:35:24.491Z,31.51
2023-05-02T07:38:28.313Z,31.93
2023-05-02T07:41:30.669Z,33.64
2023-05-02T07:44:36.848Z,35.33
2023-05-02T07:47:48.511Z,34.19
2023-05-02T07:50:51.172Z,33.86
2023-05-02T07:53:58.999Z,34.10
2023-05-02T07:57:03.433Z,35.87
2023-05-02T08:00:10.346Z,36.41
2023-05-02T08:03:22.678Z,36.66
2023-05-02T08:06:26.096Z,37.98
2023-05-02T08:09:29.031Z,39.21
2023-05-02T08:12:31.766Z,39.56
2023-05-02T08:15:34.229Z,39.14
2023-05-02T08:18:36.843Z,40.00
2023-05-02T08:21:39.162Z,39.99
2023-05-02T08:24:41.636Z,40.69
2023-05-02T08:27:43.758Z,40.11
2023-05-02T08:30:46.608Z,39.98
2023-05-02T08:33:48.907Z,38.68
2023-05-02T08:36:52.057Z,38.92
2023-05-02T08:39:54.215Z,38.62
2023-05-02T08:42:57.400Z,40.15
2023-05-02T08:46:01.917Z,38.34
2023-05-02T08:49:05.993Z,38.30
2023-05-02T08:52:11.927Z,38.06
2023-05-02T08:55:15.158Z,37.82
2023-05-02T08:58:17.807Z,36.50
2023-05-02T09:01:23.826Z,36.90
2023-05-02T09:04:32.012Z,36.43
2023-05-02T09:07:46.261Z,37.11
2023-05-02T09:10:49.270Z,37.68
2023-05-02T09:13:52.694Z,36.35
2023-05-02T09:17:00.947Z,34.44
2023-05-02T09:20:04.342Z,35.00
2023-05-02T09:23:07.541Z,33.07
2023-05-02T09:26:27.486Z,34.24
2023-05-02T09:29:37.785Z,32.41
2023-05-02T09:32:47.880Z,34.24
2023-05-02T09:35:55.024Z,32.30
2023-05-02T09:39:10.778Z,33.01
2023-05-02T09:42:13.009Z,32.02
2023-05-02T09:45:23.411Z,32.05
2023-05-02T09:48:28.084Z,29.99
2023-05-02T09:51:31.188Z,29.61
2023-05-02T09:54:37.038Z,28.69
2023-05-02T09:57:41.489Z,27.50
2023-05-02T10:00:45.151Z,26.42
2023-05-02T10:03:48.945Z,25.74
2023-05-02T10:06:52.973Z,27.83
2023-05-02T10:09:59.531Z,28.06
2023-05-02T10:13:03.727Z,30.59
2023-05-02T10:16:07.437Z,28.04
2023-05-02T10:19:12.235Z,27.82
2023-05-02T10:22:18.405Z,26.24
2023-05-02T10:25:21.319Z,25.29
2023-05-02T10:28:25.190Z,23.15
2023-05-02T10:31:31.585Z,23.13
2023-05-02T10:34:35.908Z,25.45
2023-05-02T10:37:40.797Z,23.78
2023-05-02T10:40:49.095Z,26.35
2023-05-02T10:43:51.510Z,27.05
2023-05-02T10:46:54.006Z,26.14
2023-05-02T10:49:59.241Z,24.84
2023-05-02T10:53:22.657Z,28.64
2023-05-02T10:57:12.755Z,29.06
2023-05-02T11:00:26.788Z,27.21
2023-05-02T11:03:53.860Z,25.68
2023-05-02T11:07:05.352Z,26.84
2023-05-02T11:10:16.885Z,25.34
2023-05-02T11:14:05.060Z,25.37
2023-05-02T11:17:08.943Z,27.79
2023-05-02T11:20:17.551Z,28.09
2023-05-02T11:24:16.092Z,27.64
2023-05-02T11:27:29.866Z,27.75
2023-05-02T11:30:43.982Z,27.54
2023-05-02T11:33:56.260Z,27.58
2023-05-02T11:36:58.716Z,26.47
2023-05-02T11:40:11.860Z,25.97
2023-05-02T11:43:16.600Z,25.76
2023-05-02T11:46:21.169Z,26.18
2023-05-02T11:49:23.756Z,28.33
2023-05-02T11:52:26.769Z,30.01
2023-05-02T11:55:29.108Z,31.06
2023-05-02T11:58:34.173Z,30.36
2023-05-02T12:01:36.818Z,31.01
2023-05-02T12:04:46.504Z,29.99
2023-05-02T12:07:51.660Z,29.65
2023-05-02T12:10:57.548Z,30.48
2023-05-02T12:13:59.740Z,30.86
2023-05-02T12:17:04.156Z,33.12
2023-05-02T12:20:08.922Z,28.42
2023-05-02T12:23:12.214Z,29.60
2023-05-02T12:26:25.102Z,29.54
2023-05-02T12:29:38.588Z,28.32
2023-05-02T12:32:45.505Z,28.62
2023-05-02T12:35:48.812Z,28.83
2023-05-02T12:38:56.892Z,29.37
2023-05-02T12:41:59.357Z,26.33
2023-05-02T12:45:01.595Z,26.05
2023-05-02T12:48:22.145Z,26.75
2023-05-02T12:51:24.711Z,26.37
2023-05-02T12:54:27.273Z,29.25
2023-05-02T12:57:30.155Z,30.13
2023-05-02T13:00:36.202Z,31.28
2023-05-02T13:03:38.812Z,31.51
2023-05-02T13:06:42.598Z,31.17
2023-05-02T13:09:45.363Z,31.06
2023-05-02T13:12:48.580Z,31.59
2023-05-02T13:15:50.914Z,32.98
2023-05-02T13:18:53.553Z,32.96
2023-05-02T13:21:56.488Z,33.82
2023-05-02T13:24:59.402Z,33.04
2023-05-02T13:28:01.769Z,34.79
2023-05-02T13:31:04.751Z,34.71
2023-05-02T13:34:07.536Z,32.52
2023-05-02T13:37:10.885Z,32.38
2023-05-02T13:40:13.406Z,33.17
2023-05-02T13:43:18.897Z,32.37
2023-05-02T13:46:21.435Z,32.13
2023-05-02T13:49:24.765Z,32.83
2023-05-02T13:52:26.932Z,32.86
2023-05-02T13:55:29.478Z,32.36
2023-05-02T13:58:31.632Z,32.22
2023-05-02T14:01:34.244Z,32.38
2023-05-02T14:04:36.812Z,31.83
2023-05-02T14:07:38.980Z,32.35
2023-05-02T14:10:41.508Z,33.14
2023-05-02T14:13:44.296Z,33.25
2023-05-02T14:16:48.838Z,32.48
2023-05-02T14:19:52.843Z,32.53
2023-05-02T14:22:55.374Z,32.50
2023-05-02T14:25:58.243Z,32.25
2023-05-02T14:29:01.027Z,32.51
2023-05-02T14:32:03.426Z,33.90
2023-05-02T14:35:07.008Z,32.41
2023-05-02T14:38:09.300Z,33.07
2023-05-02T14:41:11.979Z,32.92
2023-05-02T14:44:14.175Z,33.72
2023-05-02T14:47:16.802Z,33.88
2023-05-02T14:50:19.148Z,33.41
2023-05-02T14:53:21.813Z,34.16
2023-05-02T14:56:25.471Z,33.68
2023-05-02T14:59:31.445Z,34.00
2023-05-02T15:02:34.871Z,34.27
2023-05-02T15:05:37.665Z,34.21
2023-05-02T15:08:40.576Z,33.73
2023-05-02T15:11:43.764Z,35.03
2023-05-02T15:14:45.987Z,36.81
2023-05-02T15:17:48.829Z,37.93
2023-05-02T15:20:55.700Z,36.71
2023-05-02T15:23:58.808Z,36.29
2023-05-02T15:27:01.783Z,35.21
2023-05-02T15:30:06.569Z,35.06
2023-05-02T15:33:09.241Z,34.62
2023-05-02T15:36:11.808Z,34.51
2023-05-02T15:39:14.024Z,34.77
2023-05-02T15:42:16.586Z,34.34
2023-05-02T15:45:18.952Z,34.06
2023-05-02T15:48:22.399Z,34.06
2023-05-02T15:51:24.650Z,35.86
2023-05-02T15:54:27.632Z,35.59
2023-05-02T15:57:29.839Z,35.21
2023-05-02T16:00:32.357Z,36.29
2023-05-02T16:03:35.080Z,35.80
2023-05-02T16:06:37.456Z,35.42
2023-05-02T16:09:41.756Z,35.56
2023-05-02T16:12:43.965Z,37.01
2023-05-02T16:15:49.539Z,35.84
2023-05-02T16:18:51.761Z,37.03
2023-05-02T16:21:54.237Z,36.76
2023-05-02T16:24:56.569Z,38.66
2023-05-02T16:28:00.128Z,37.63
2023-05-02T16:31:06.501Z,37.92
2023-05-02T16:34:09.197Z,38.51
2023-05-02T16:37:14.017Z,38.89
2023-05-02T16:40:17.081Z,39.93
2023-05-02T16:43:19.600Z,41.10
2023-05-02T16:46:22.330Z,41.47
2023-05-02T16:49:27.350Z,42.11
2023-05-02T16:52:30.355Z,43.25
2023-05-02T16:55:32.924Z,43.50
2023-05-02T16:58:37.136Z,44.24
2023-05-02T17:01:40.991Z,44.56
2023-05-02T17:04:44.162Z,45.20
2023-05-02T17:07:46.384Z,45.97
2023-05-02T17:10:52.108Z,47.39
2023-05-02T17:13:55.373Z,47.90
2023-05-02T17:16:58.593Z,47.69
2023-05-02T17:20:02.675Z,48.46
2023-05-02T17:23:06.893Z,47.74
2023-05-02T17:26:16.004Z,48.66
2023-05-02T17:29:19.914Z,48.98
2023-05-02T17:32:22.941Z,49.00
2023-05-02T17:35:26.017Z,49.48
2023-05-02T17:38:29.121Z,50.02
2023-05-02T17:41:32.980Z,50.58
2023-05-02T17:44:36.635Z,50.86
2023-05-02T17:47:41.376Z,51.82
2023-05-02T17:50:45.196Z,52.10
2023-05-02T17:53:50.267Z,52.34
2023-05-02T17:56:54.830Z,53.42
2023-05-02T17:59:59.863Z,53.68
2023-05-02T18:03:03.830Z,54.06
2023-05-02T18:06:07.741Z,53.64
2023-05-02T18:09:13.756Z,53.89
2023-05-02T18:12:17.002Z,54.29
2023-05-02T18:15:20.224Z,53.59
2023-05-02T18:18:23.010Z,53.24
2023-05-02T18:21:25.863Z,53.42
2023-05-02T18:24:28.603Z,53.93
2023-05-02T18:27:30.978Z,55.04
2023-05-02T18:30:37.485Z,54.92
2023-05-02T18:33:41.462Z,54.41
2023-05-02T18:36:45.514Z,54.12
2023-05-02T18:39:47.733Z,55.74
2023-05-02T18:42:50.373Z,55.51
2023-05-02T18:45:52.593Z,56.72
2023-05-02T18:48:55.074Z,58.70
2023-05-02T18:51:57.211Z,59.63
2023-05-02T18:55:01.987Z,61.18
2023-05-02T18:58:04.410Z,61.76
2023-05-02T19:01:16.639Z,62.46
2023-05-02T19:04:19.184Z,64.27
2023-05-02T19:07:21.647Z,65.96
2023-05-02T19:10:24.011Z,64.40
2023-05-02T19:13:29.526Z,65.70
2023-05-02T19:16:31.921Z,66.54
2023-05-02T19:19:34.628Z,69.01
2023-05-02T19:22:37.291Z,70.28
2023-05-02T19:25:39.795Z,73.30
2023-05-02T19:28:42.974Z,76.13
2023-05-02T19:31:46.307Z,79.63
2023-05-02T19:34:48.635Z,83.42
2023-05-02T19:37:51.159Z,89.75
2023-05-02T19:40:53.294Z,83.75
2023-05-02T19:43:56.928Z,84.22
2023-05-02T19:46:59.110Z,84.71
2023-05-02T19:50:01.697Z,85.83
2023-05-02T19:53:05.072Z,85.97
2023-05-02T19:56:07.494Z,89.05
2023-05-02T19:59:09.706Z,89.63
2023-05-02T20:02:12.317Z,91.56
2023-05-02T20:05:14.799Z,92.13
2023-05-02T20:08:17.747Z,92.98
2023-05-02T20:11:20.400Z,96.05
2023-05-02T20:14:22.634Z,99.83
2023-05-02T20:17:25.679Z,100.00
2023-05-02T20:20:28.842Z,100.00
2023-05-02T20:23:31.359Z,100.00
2023-05-02T20:26:33.859Z,100.00
2023-05-02T20:29:36.414Z,100.00
2023-05-02T20:32:38.668Z,100.00
2023-05-02T20:35:41.223Z,100.00
2023-05-02T20:38:47.884Z,100.00
2023-05-02T20:41:50.453Z,100.00
2023-05-02T20:44:56.946Z,100.00
2023-05-02T20:47:59.509Z,100.00
2023-05-02T20:51:01.773Z,100.00
2023-05-02T20:54:06.334Z,100.00
2023-05-02T20:57:08.558Z,100.00
2023-05-02T21:00:13.693Z,100.00
2023-05-02T21:03:16.176Z,100.00
2023-05-02T21:06:20.857Z,100.00
2023-05-02T21:09:23.789Z,100.00
2023-05-02T21:12:26.251Z,100.00
2023-05-02T21:15:28.456Z,100.00
2023-05-02T21:18:30.918Z,100.00
2023-05-02T21:21:33.239Z,100.00
2023-05-02T21:24:36.469Z,100.00
2023-05-02T21:27:38.722Z,100.00
2023-05-02T21:30:41.270Z,100.00
2023-05-02T21:33:43.500Z,100.00
2023-05-02T21:36:46.281Z,100.00
2023-05-02T21:39:48.466Z,100.00
2023-05-02T21:42:50.933Z,100.00
2023-05-02T21:45:53.108Z,100.00
2023-05-02T21:48:55.725Z,100.00
2023-05-02T21:51:58.774Z,100.00
2023-05-02T21:55:01.329Z,100.00
2023-05-02T21:58:04.197Z,100.00
2023-05-02T22:01:06.746Z,100.00
2023-05-02T22:04:09.460Z,100.00
2023-05-02T22:07:11.701Z,100.00
2023-05-02T22:10:14.755Z,100.00
2023-05-02T22:13:16.904Z,100.00
2023-05-02T22:16:19.578Z,100.00
2023-05-02T22:19:22.262Z,100.00
2023-05-02T22:22:24.756Z,100.00
2023-05-02T22:25:27.082Z,100.00
2023-05-02T22:28:29.561Z,100.00
2023-05-02T22:31:31.809Z,100.00
2023-05-02T22:34:35.277Z,100.00
2023-05-02T22:37:37.466Z,100.00
2023-05-02T22:40:39.954Z,100.00
2023-05-02T22:43:42.153Z,100.00
2023-05-02T22:46:44.806Z,100.00
2023-05-02T22:49:47.290Z,100.00
2023-05-02T22:52:51.086Z,100.00
2023-05-02T22:55:55.763Z,100.00
2023-05-02T22:58:58.171Z,100.00
2023-05-02T23:02:00.566Z,100.00
2023-05-02T23:05:04.144Z,100.00
2023-05-02T23:08:06.314Z,100.00
2023-05-02T23:11:08.774Z,100.00
2023-05-02T23:14:11.013Z,100.00
2023-05-02T23:17:13.717Z,100.00
2023-05-02T23:20:19.500Z,100.00
2023-05-02T23:23:22.085Z,100.00
2023-05-02T23:26:24.225Z,100.00
2023-05-02T23:29:26.708Z,100.00
2023-05-02T23:32:29.024Z,100.00
2023-05-02T23:35:32.558Z,100.00
2023-05-02T23:38:35.328Z,100.00
2023-05-02T23:41:37.783Z,100.00
2023-05-02T23:44:40.193Z,100.00
2023-05-02T23:47:42.687Z,100.00
2023-05-02T23:50:44.839Z,100.00
2023-05-02T23:53:47.333Z,100.00
2023-05-02T23:56:49.511Z,100.00
2023-05-02T23:59:52.129Z,100.00
